Terminal Aerodrome Forecast
Issued by NWS

Home | Current Version | Previous Version | Text Only | Print | Product List | Glossary On
Versions: 1 2 3 4 5 6 7 8 9 10 11 12 13 14 15 16 17 18 19 20 21
000
FTUS41 KOKX 051434 AAA
TAFHPN
TAF AMD
KHPN 051434Z 0515/0612 32006KT P6SM SCT100
     FM051700 VRB04KT P6SM SCT050 BKN150
     FM052000 18007KT P6SM SCT050 SCT150
     FM052300 VRB04KT P6SM BKN060
     FM060800 03006KT 6SM -SHRA BKN040
      AMD NOT SKED=

USA.gov is the U.S. government's official web portal to all federal, state and local government web resources and services.